CheckWX is a tool to help pilots better visualize weather data.  It is not intended as a substitute for an official pre-flight weather briefing.

06:58:41 UTC

KFMH TAF
Cape Cod Coast Guard Air Station Airport
Falmouth, Massachusetts, USA
KFMH 190533Z 1906/2006 08003KT 6SM BR BKN035 FM190700 08003KT 5SM BR BKN008 FM191600 13005KT P6SM BKN015 FM191700 15006KT 5SM BR BKN025 FM192200 15007KT 1SM BR BKN015 FM200000 15007KT 2SM BR VCSH OVC008

Jun-19@
06:00 UTC

Jun-19 @ 06:00 UTC

Jun-19@
07:00 UTC

Jun-19 @ 07:00 UTC

KFMH 190533Z 1906/2006 08003KT 6SM BR BKN035
Wind
  • 080° at 3 KTS
Conditions
Mist
Cloud Levels
  • Broken at 3,500' AGL

Jun-19@
07:00 UTC

Jun-19 @ 07:00 UTC

Jun-19@
16:00 UTC

Jun-19 @ 16:00 UTC

FM190700 08003KT 5SM BR BKN008

From

From Standard forecast or significant change

Wind
  • 080° at 3 KTS
Conditions
Mist
Cloud Levels
  • Broken at 800' AGL

Jun-19@
16:00 UTC

Jun-19 @ 16:00 UTC

Jun-19@
17:00 UTC

Jun-19 @ 17:00 UTC

FM191600 13005KT P6SM BKN015

From

From Standard forecast or significant change

Wind
  • 130° at 5 KTS
Cloud Levels
  • Broken at 1,500' AGL

Jun-19@
17:00 UTC

Jun-19 @ 17:00 UTC

Jun-19@
22:00 UTC

Jun-19 @ 22:00 UTC

FM191700 15006KT 5SM BR BKN025

From

From Standard forecast or significant change

Wind
  • 150° at 6 KTS
Conditions
Mist
Cloud Levels
  • Broken at 2,500' AGL

Jun-19@
22:00 UTC

Jun-19 @ 22:00 UTC

Jun-20@
00:00 UTC

Jun-20 @ 00:00 UTC

FM192200 15007KT 1SM BR BKN015

From

From Standard forecast or significant change

Wind
  • 150° at 7 KTS
Conditions
Mist
Cloud Levels
  • Broken at 1,500' AGL

Jun-20@
00:00 UTC

Jun-20 @ 00:00 UTC

Jun-20@
06:00 UTC

Jun-20 @ 06:00 UTC

FM200000 15007KT 2SM BR VCSH OVC008

From

From Standard forecast or significant change

Wind
  • 150° at 7 KTS
Conditions
Mist
Cloud Levels
  • Overcast at 800' AGL